createdAt,value
2019-04-12T00:01:54.533Z,100692.00
2019-04-12T00:04:27.334Z,100683.00
2019-04-12T00:07:00.878Z,100683.00
2019-04-12T00:09:35.969Z,100686.00
2019-04-12T00:12:08.817Z,100683.00
2019-04-12T00:14:42.258Z,100680.00
2019-04-12T00:17:15.158Z,100684.00
2019-04-12T00:19:47.972Z,100683.00
2019-04-12T00:22:20.787Z,100678.00
2019-04-12T00:24:53.642Z,100679.00
2019-04-12T00:27:26.485Z,100684.00
2019-04-12T00:29:59.554Z,100675.00
2019-04-12T00:32:32.372Z,100673.00
2019-04-12T00:35:05.358Z,100665.00
2019-04-12T00:37:38.164Z,100673.00
2019-04-12T00:40:11.787Z,100670.00
2019-04-12T00:42:44.631Z,100679.00
2019-04-12T00:45:17.652Z,100669.00
2019-04-12T00:47:50.426Z,100682.00
2019-04-12T00:50:23.230Z,100679.00
2019-04-12T00:52:56.000Z,100670.00
2019-04-12T00:55:28.800Z,100673.00
2019-04-12T00:58:01.605Z,100679.00
2019-04-12T01:00:51.473Z,100676.00
2019-04-12T01:03:24.698Z,100674.00
2019-04-12T01:05:57.611Z,100670.00
2019-04-12T01:08:32.402Z,100680.00
2019-04-12T01:11:09.018Z,100676.00
2019-04-12T01:13:41.808Z,100673.00
2019-04-12T01:16:14.653Z,100673.00
2019-04-12T01:18:47.437Z,100673.00
2019-04-12T01:21:21.027Z,100677.00
2019-04-12T01:23:53.804Z,100666.00
2019-04-12T01:26:26.629Z,100670.00
2019-04-12T01:28:59.498Z,100668.00
2019-04-12T01:31:32.333Z,100670.00
2019-04-12T01:34:05.210Z,100677.00
2019-04-12T01:36:38.039Z,100674.00
2019-04-12T01:39:10.850Z,100668.00
2019-04-12T01:41:43.655Z,100670.00
2019-04-12T01:44:16.434Z,100669.00
2019-04-12T01:46:49.352Z,100675.00
2019-04-12T01:49:22.158Z,100670.00
2019-04-12T01:51:55.010Z,100658.00
2019-04-12T01:54:27.835Z,100671.00
2019-04-12T01:57:00.647Z,100666.00
2019-04-12T01:59:33.474Z,100672.00
2019-04-12T02:02:06.291Z,100658.00
2019-04-12T02:04:39.075Z,100655.00
2019-04-12T02:07:11.902Z,100655.00
2019-04-12T02:09:44.705Z,100654.00
2019-04-12T02:12:17.792Z,100654.00
2019-04-12T02:14:50.623Z,100657.00
2019-04-12T02:17:23.430Z,100662.00
2019-04-12T02:19:56.317Z,100655.00
2019-04-12T02:22:29.122Z,100651.00
2019-04-12T02:25:03.821Z,100655.00
2019-04-12T02:27:36.617Z,100658.00
2019-04-12T02:30:13.310Z,100655.00
2019-04-12T02:33:03.007Z,100657.00
2019-04-12T02:35:39.871Z,100658.00
2019-04-12T02:38:12.703Z,100655.00
2019-04-12T02:40:49.376Z,100655.00
2019-04-12T02:43:25.398Z,100652.00
2019-04-12T02:46:03.703Z,100650.00
2019-04-12T02:48:52.210Z,100660.00
2019-04-12T02:51:45.352Z,100661.00
2019-04-12T02:54:38.822Z,100662.00
2019-04-12T02:57:31.196Z,100658.00
2019-04-12T03:00:09.045Z,100655.00
2019-04-12T03:02:41.820Z,100645.00
2019-04-12T03:05:14.635Z,100658.00
2019-04-12T03:07:47.460Z,100655.00
2019-04-12T03:10:20.882Z,100654.00
2019-04-12T03:12:54.797Z,100657.00
2019-04-12T03:15:29.030Z,100656.00
2019-04-12T03:18:02.702Z,100658.00
2019-04-12T03:20:35.476Z,100664.00
2019-04-12T03:23:08.580Z,100656.00
2019-04-12T03:25:52.736Z,100658.00
2019-04-12T03:28:18.261Z,100661.00
2019-04-12T03:30:52.083Z,100651.00
2019-04-12T03:33:25.093Z,100662.00
2019-04-12T03:35:58.677Z,100663.00
2019-04-12T03:38:32.059Z,100653.00
2019-04-12T03:41:05.076Z,100657.00
2019-04-12T03:43:38.068Z,100652.00
2019-04-12T03:46:11.668Z,100656.00
2019-04-12T03:48:44.470Z,100648.00
2019-04-12T03:51:17.287Z,100647.00
2019-04-12T03:53:50.184Z,100647.00
2019-04-12T03:56:23.866Z,100652.00
2019-04-12T03:59:15.085Z,100658.00
2019-04-12T04:01:54.246Z,100656.00
2019-04-12T04:04:27.143Z,100653.00
2019-04-12T04:07:00.461Z,100651.00
2019-04-12T04:09:33.325Z,100645.00
2019-04-12T04:12:06.221Z,100640.00
2019-04-12T04:14:40.954Z,100653.00
2019-04-12T04:17:32.722Z,100651.00
2019-04-12T04:20:20.248Z,100653.00
2019-04-12T04:23:02.369Z,100648.00
2019-04-12T04:25:43.949Z,100654.00
2019-04-12T04:28:29.614Z,100653.00
2019-04-12T04:31:07.644Z,100655.00
2019-04-12T04:33:40.688Z,100661.00
2019-04-12T04:36:14.624Z,100655.00
2019-04-12T04:38:47.937Z,100656.00
2019-04-12T04:41:24.223Z,100659.00
2019-04-12T04:43:57.332Z,100658.00
2019-04-12T04:46:30.336Z,100661.00
2019-04-12T04:49:04.663Z,100659.00
2019-04-12T04:51:38.542Z,100666.00
2019-04-12T04:54:11.787Z,100673.00
2019-04-12T04:56:45.056Z,100665.00
2019-04-12T04:59:18.157Z,100677.00
2019-04-12T05:01:51.248Z,100663.00
2019-04-12T05:04:24.365Z,100683.00
2019-04-12T05:06:57.832Z,100675.00
2019-04-12T05:09:31.916Z,100680.00
2019-04-12T05:12:05.199Z,100677.00
2019-04-12T05:14:38.183Z,100682.00
2019-04-12T05:17:11.353Z,100679.00
2019-04-12T05:19:44.486Z,100685.00
2019-04-12T05:22:17.688Z,100681.00
2019-04-12T05:24:50.891Z,100701.00
2019-04-12T05:27:24.228Z,100699.00
2019-04-12T05:29:57.454Z,100696.00
2019-04-12T05:32:33.324Z,100691.00
2019-04-12T05:35:06.486Z,100696.00
2019-04-12T05:37:40.020Z,100695.00
2019-04-12T05:40:13.258Z,100695.00
2019-04-12T05:42:46.125Z,100694.00
2019-04-12T05:45:26.322Z,100703.00
2019-04-12T05:48:16.727Z,100701.00
2019-04-12T05:50:49.834Z,100699.00
2019-04-12T05:53:22.814Z,100694.00
2019-04-12T05:55:58.987Z,100698.00
2019-04-12T05:58:54.035Z,100693.00
2019-04-12T06:01:44.503Z,100709.00
2019-04-12T06:04:17.688Z,100703.00
2019-04-12T06:06:50.768Z,100694.00
2019-04-12T06:09:23.681Z,100704.00
2019-04-12T06:11:56.764Z,100698.00
2019-04-12T06:14:30.221Z,100704.00
2019-04-12T06:17:03.128Z,100707.00
2019-04-12T06:19:38.196Z,100709.00
2019-04-12T06:22:16.647Z,100713.00
2019-04-12T06:25:00.495Z,100705.00
2019-04-12T06:27:38.491Z,100707.00
2019-04-12T06:30:16.264Z,100716.00
2019-04-12T06:32:49.296Z,100719.00
2019-04-12T06:35:22.744Z,100718.00
2019-04-12T06:37:55.685Z,100719.00
2019-04-12T06:40:32.199Z,100722.00
2019-04-12T06:43:06.465Z,100724.00
2019-04-12T06:45:39.367Z,100733.00
2019-04-12T06:48:12.330Z,100718.00
2019-04-12T06:50:47.753Z,100724.00
2019-04-12T06:53:20.741Z,100718.00
2019-04-12T06:56:28.365Z,100720.00
2019-04-12T06:59:05.203Z,100716.00
2019-04-12T07:01:49.493Z,100712.00
2019-04-12T07:04:32.336Z,100723.00
2019-04-12T07:07:05.242Z,100725.00
2019-04-12T07:09:40.105Z,100715.00
2019-04-12T07:12:13.170Z,100716.00
2019-04-12T07:14:46.178Z,100715.00
2019-04-12T07:17:19.165Z,100720.00
2019-04-12T07:19:52.203Z,100725.00
2019-04-12T07:22:26.215Z,100719.00
2019-04-12T07:25:03.358Z,100711.00
2019-04-12T07:27:37.282Z,100700.00
2019-04-12T07:30:10.605Z,100721.00
2019-04-12T07:32:43.625Z,100714.00
2019-04-12T07:35:16.567Z,100719.00
2019-04-12T07:37:51.336Z,100727.00
2019-04-12T07:40:24.254Z,100711.00
2019-04-12T07:42:58.315Z,100713.00
2019-04-12T07:45:31.297Z,100719.00
2019-04-12T07:48:06.065Z,100709.00
2019-04-12T07:51:07.987Z,100720.00
2019-04-12T07:53:57.469Z,100732.00
2019-04-12T07:56:30.386Z,100728.00
2019-04-12T07:59:07.970Z,100728.00
2019-04-12T08:02:09.649Z,100728.00
2019-04-12T08:04:58.818Z,100738.00
2019-04-12T08:07:42.675Z,100723.00
2019-04-12T08:10:15.699Z,100716.00
2019-04-12T08:12:48.771Z,100734.00
2019-04-12T08:15:21.825Z,100730.00
2019-04-12T08:17:54.752Z,100724.00
2019-04-12T08:20:27.724Z,100733.00
2019-04-12T08:23:00.820Z,100724.00
2019-04-12T08:25:33.758Z,100719.00
2019-04-12T08:28:06.862Z,100724.00
2019-04-12T08:30:39.742Z,100743.00
2019-04-12T08:33:12.718Z,100722.00
2019-04-12T08:35:45.655Z,100737.00
2019-04-12T08:38:18.698Z,100746.00
2019-04-12T08:40:51.618Z,100738.00
2019-04-12T08:43:24.591Z,100738.00
2019-04-12T08:45:57.467Z,100742.00
2019-04-12T08:48:30.475Z,100728.00
2019-04-12T08:51:03.592Z,100733.00
2019-04-12T08:53:36.805Z,100737.00
2019-04-12T08:56:09.713Z,100738.00
2019-04-12T08:58:42.692Z,100728.00
2019-04-12T09:01:15.689Z,100725.00
2019-04-12T09:03:48.662Z,100742.00
2019-04-12T09:06:21.943Z,100730.00
2019-04-12T09:09:15.220Z,100738.00
2019-04-12T09:11:48.452Z,100732.00
2019-04-12T09:14:21.595Z,100718.00
2019-04-12T09:16:54.633Z,100714.00
2019-04-12T09:19:41.236Z,100743.00
2019-04-12T09:22:39.165Z,100737.00
2019-04-12T09:25:34.800Z,100734.00
2019-04-12T09:28:09.720Z,100737.00
2019-04-12T09:30:43.888Z,100728.00
2019-04-12T09:33:16.963Z,100739.00
2019-04-12T09:35:49.880Z,100726.00
2019-04-12T09:38:22.748Z,100732.00
2019-04-12T09:40:56.598Z,100728.00
2019-04-12T09:43:29.782Z,100728.00
2019-04-12T09:46:02.766Z,100735.00
2019-04-12T09:48:35.908Z,100744.00
2019-04-12T09:51:10.674Z,100750.00
2019-04-12T09:53:43.640Z,100734.00
2019-04-12T09:56:17.698Z,100719.00
2019-04-12T09:58:50.721Z,100728.00
2019-04-12T10:01:23.731Z,100720.00
2019-04-12T10:03:56.823Z,100718.00
2019-04-12T10:06:29.788Z,100736.00
2019-04-12T10:09:05.507Z,100721.00
2019-04-12T10:11:40.409Z,100729.00
2019-04-12T10:14:14.673Z,100719.00
2019-04-12T10:16:47.768Z,100718.00
2019-04-12T10:19:20.782Z,100713.00
2019-04-12T10:21:53.821Z,100711.00
2019-04-12T10:24:27.984Z,100728.00
2019-04-12T10:27:00.897Z,100717.00
2019-04-12T10:29:36.590Z,100702.00
2019-04-12T10:32:08.780Z,100707.00
2019-04-12T10:34:41.740Z,100702.00
2019-04-12T10:37:14.697Z,100704.00
2019-04-12T10:39:47.727Z,100692.00
2019-04-12T10:42:20.890Z,100698.00
2019-04-12T10:45:20.978Z,100711.00
2019-04-12T10:48:28.658Z,100704.00
2019-04-12T10:51:19.695Z,100720.00
2019-04-12T10:54:01.578Z,100693.00
2019-04-12T10:56:34.575Z,100692.00
2019-04-12T10:59:08.541Z,100676.00
2019-04-12T11:01:42.495Z,100688.00
2019-04-12T11:04:15.535Z,100691.00
2019-04-12T11:06:48.543Z,100708.00
2019-04-12T11:09:21.692Z,100684.00
2019-04-12T11:11:54.620Z,100688.00
2019-04-12T11:14:27.553Z,100686.00
2019-04-12T11:17:00.493Z,100692.00
2019-04-12T11:19:33.494Z,100678.00
2019-04-12T11:22:06.573Z,100695.00
2019-04-12T11:24:39.600Z,100695.00
2019-04-12T11:27:12.566Z,100685.00
2019-04-12T11:29:46.689Z,100691.00
2019-04-12T11:32:19.571Z,100690.00
2019-04-12T11:34:52.531Z,100698.00
2019-04-12T11:37:25.454Z,100688.00
2019-04-12T11:39:58.443Z,100670.00
2019-04-12T11:42:31.573Z,100689.00
2019-04-12T11:45:06.672Z,100696.00
2019-04-12T11:47:39.653Z,100689.00
2019-04-12T11:50:12.882Z,100688.00
2019-04-12T11:52:45.848Z,100698.00
2019-04-12T11:55:18.752Z,100699.00
2019-04-12T11:57:51.675Z,100692.00
2019-04-12T12:00:53.625Z,100690.00
2019-04-12T12:03:35.431Z,100693.00
2019-04-12T12:06:20.886Z,100695.00
2019-04-12T12:09:13.693Z,100692.00
2019-04-12T12:11:50.614Z,100692.00
2019-04-12T12:14:37.906Z,100692.00
2019-04-12T12:17:32.330Z,100698.00
2019-04-12T12:20:05.733Z,100681.00
2019-04-12T12:22:38.854Z,100688.00
2019-04-12T12:25:11.932Z,100686.00
2019-04-12T12:27:44.893Z,100690.00
2019-04-12T12:30:18.963Z,100688.00
2019-04-12T12:32:52.037Z,100682.00
2019-04-12T12:35:24.979Z,100679.00
2019-04-12T12:37:58.044Z,100669.00
2019-04-12T12:40:31.187Z,100676.00
2019-04-12T12:43:04.336Z,100680.00
2019-04-12T12:45:37.439Z,100670.00
2019-04-12T12:48:11.458Z,100689.00
2019-04-12T12:50:45.552Z,100678.00
2019-04-12T12:53:18.596Z,100676.00
2019-04-12T12:55:51.576Z,100690.00
2019-04-12T12:58:24.656Z,100684.00
2019-04-12T13:00:57.763Z,100682.00
2019-04-12T13:03:30.733Z,100686.00
2019-04-12T13:06:03.771Z,100678.00
2019-04-12T13:08:36.978Z,100692.00
2019-04-12T13:11:10.114Z,100684.00
2019-04-12T13:13:43.398Z,100688.00
2019-04-12T13:16:16.391Z,100682.00
2019-04-12T13:18:49.665Z,100674.00
2019-04-12T13:21:22.604Z,100684.00
2019-04-12T13:23:55.515Z,100663.00
2019-04-12T13:26:28.574Z,100687.00
2019-04-12T13:29:01.617Z,100691.00
2019-04-12T13:32:09.274Z,100681.00
2019-04-12T13:34:55.461Z,100690.00
2019-04-12T13:37:41.656Z,100684.00
2019-04-12T13:40:36.002Z,100679.00
2019-04-12T13:43:14.796Z,100680.00
2019-04-12T13:45:48.075Z,100680.00
2019-04-12T13:48:21.035Z,100677.00
2019-04-12T13:50:54.091Z,100670.00
2019-04-12T13:53:27.056Z,100672.00
2019-04-12T13:56:00.091Z,100679.00
2019-04-12T13:58:33.070Z,100678.00
2019-04-12T14:01:06.446Z,100667.00
2019-04-12T14:03:39.432Z,100666.00
2019-04-12T14:06:14.327Z,100673.00
2019-04-12T14:08:47.314Z,100674.00
2019-04-12T14:11:20.532Z,100683.00
2019-04-12T14:13:53.524Z,100675.00
2019-04-12T14:16:26.653Z,100681.00
2019-04-12T14:18:59.821Z,100672.00
2019-04-12T14:21:32.808Z,100670.00
2019-04-12T14:24:05.831Z,100675.00
2019-04-12T14:26:38.921Z,100676.00
2019-04-12T14:29:11.994Z,100678.00
2019-04-12T14:31:46.480Z,100678.00
2019-04-12T14:34:37.293Z,100672.00
2019-04-12T14:37:30.039Z,100680.00
2019-04-12T14:40:03.502Z,100685.00
2019-04-12T14:42:36.647Z,100677.00
2019-04-12T14:45:28.040Z,100688.00
2019-04-12T14:48:03.046Z,100686.00
2019-04-12T14:50:36.011Z,100680.00
2019-04-12T14:53:09.131Z,100692.00
2019-04-12T14:55:42.134Z,100675.00
2019-04-12T14:58:15.208Z,100690.00
2019-04-12T15:00:49.449Z,100680.00
2019-04-12T15:03:22.482Z,100683.00
2019-04-12T15:05:56.573Z,100694.00
2019-04-12T15:08:29.494Z,100690.00
2019-04-12T15:11:02.653Z,100690.00
2019-04-12T15:13:35.605Z,100684.00
2019-04-12T15:16:08.660Z,100683.00
2019-04-12T15:18:41.618Z,100681.00
2019-04-12T15:21:14.756Z,100678.00
2019-04-12T15:23:47.895Z,100673.00
2019-04-12T15:26:20.853Z,100686.00
2019-04-12T15:28:53.854Z,100684.00
2019-04-12T15:31:26.900Z,100677.00
2019-04-12T15:33:59.937Z,100684.00
2019-04-12T15:36:33.007Z,100691.00
2019-04-12T15:39:10.698Z,100686.00
2019-04-12T15:41:44.687Z,100687.00
2019-04-12T15:44:18.810Z,100683.00
2019-04-12T15:46:51.855Z,100684.00
2019-04-12T15:49:25.035Z,100683.00
2019-04-12T15:52:00.601Z,100677.00
2019-04-12T15:54:33.668Z,100688.00
2019-04-12T15:57:06.761Z,100683.00
2019-04-12T15:59:39.774Z,100684.00
2019-04-12T16:02:13.465Z,100700.00
2019-04-12T16:04:47.496Z,100690.00
2019-04-12T16:07:33.435Z,100689.00
2019-04-12T16:10:10.082Z,100701.00
2019-04-12T16:13:10.609Z,100689.00
2019-04-12T16:16:32.446Z,100689.00
2019-04-12T16:19:05.518Z,100695.00
2019-04-12T16:21:38.612Z,100700.00
2019-04-12T16:24:12.764Z,100700.00
2019-04-12T16:26:51.136Z,100712.00
2019-04-12T16:29:48.128Z,100701.00
2019-04-12T16:32:56.392Z,100706.00
2019-04-12T16:35:37.645Z,100715.00
2019-04-12T16:38:16.632Z,100709.00
2019-04-12T16:40:49.849Z,100705.00
2019-04-12T16:43:22.878Z,100702.00
2019-04-12T16:45:55.901Z,100713.00
2019-04-12T16:48:28.893Z,100716.00
2019-04-12T16:51:03.577Z,100704.00
2019-04-12T16:53:38.473Z,100696.00
2019-04-12T16:56:11.513Z,100702.00
2019-04-12T16:58:44.457Z,100702.00
2019-04-12T17:01:17.511Z,100703.00
2019-04-12T17:03:50.556Z,100718.00
2019-04-12T17:06:23.679Z,100707.00
2019-04-12T17:08:56.622Z,100707.00
2019-04-12T17:11:32.939Z,100701.00
2019-04-12T17:14:05.994Z,100713.00
2019-04-12T17:16:39.008Z,100709.00
2019-04-12T17:19:11.924Z,100706.00
2019-04-12T17:21:44.853Z,100710.00
2019-04-12T17:24:17.963Z,100713.00
2019-04-12T17:26:50.956Z,100709.00
2019-04-12T17:29:23.950Z,100700.00
2019-04-12T17:31:57.949Z,100705.00
2019-04-12T17:34:30.845Z,100707.00
2019-04-12T17:37:03.973Z,100698.00
2019-04-12T17:39:37.133Z,100706.00
2019-04-12T17:42:10.178Z,100702.00
2019-04-12T17:44:43.262Z,100708.00
2019-04-12T17:47:16.379Z,100708.00
2019-04-12T17:49:58.057Z,100713.00
2019-04-12T17:52:45.982Z,100709.00
2019-04-12T17:55:26.482Z,100712.00
2019-04-12T17:57:59.471Z,100720.00
2019-04-12T18:00:41.988Z,100727.00
2019-04-12T18:03:14.974Z,100713.00
2019-04-12T18:05:47.991Z,100717.00
2019-04-12T18:08:20.972Z,100731.00
2019-04-12T18:10:54.214Z,100718.00
2019-04-12T18:13:27.399Z,100711.00
2019-04-12T18:16:02.167Z,100717.00
2019-04-12T18:18:35.161Z,100722.00
2019-04-12T18:21:08.332Z,100726.00
2019-04-12T18:23:41.667Z,100694.00
2019-04-12T18:26:14.888Z,100719.00
2019-04-12T18:28:49.882Z,100733.00
2019-04-12T18:31:23.043Z,100728.00
2019-04-12T18:33:56.179Z,100730.00
2019-04-12T18:36:29.164Z,100726.00
2019-04-12T18:39:05.084Z,100734.00
2019-04-12T18:41:38.963Z,100733.00
2019-04-12T18:44:12.186Z,100732.00
2019-04-12T18:46:48.035Z,100729.00
2019-04-12T18:49:23.838Z,100736.00
2019-04-12T18:51:58.881Z,100743.00
2019-04-12T18:54:31.925Z,100734.00
2019-04-12T18:57:07.394Z,100742.00
2019-04-12T18:59:40.389Z,100745.00
2019-04-12T19:02:13.525Z,100742.00
2019-04-12T19:04:46.698Z,100753.00
2019-04-12T19:07:20.015Z,100756.00
2019-04-12T19:09:53.050Z,100753.00
2019-04-12T19:12:26.097Z,100751.00
2019-04-12T19:15:00.417Z,100743.00
2019-04-12T19:17:34.686Z,100748.00
2019-04-12T19:20:10.563Z,100734.00
2019-04-12T19:22:43.848Z,100745.00
2019-04-12T19:25:18.124Z,100755.00
2019-04-12T19:27:51.357Z,100747.00
2019-04-12T19:30:29.421Z,100752.00
2019-04-12T19:33:21.017Z,100747.00
2019-04-12T19:36:13.631Z,100745.00
2019-04-12T19:39:05.016Z,100749.00
2019-04-12T19:41:41.561Z,100745.00
2019-04-12T19:44:14.926Z,100741.00
2019-04-12T19:46:48.076Z,100745.00
2019-04-12T19:49:21.134Z,100753.00
2019-04-12T19:51:54.303Z,100752.00
2019-04-12T19:54:27.504Z,100751.00
2019-04-12T19:57:00.706Z,100753.00
2019-04-12T19:59:33.897Z,100749.00
2019-04-12T20:02:06.979Z,100750.00
2019-04-12T20:04:40.061Z,100746.00
2019-04-12T20:07:15.023Z,100738.00
2019-04-12T20:09:48.244Z,100751.00
2019-04-12T20:12:21.237Z,100745.00
2019-04-12T20:14:54.209Z,100746.00
2019-04-12T20:17:27.329Z,100747.00
2019-04-12T20:20:00.477Z,100745.00
2019-04-12T20:22:36.124Z,100747.00
2019-04-12T20:25:09.551Z,100748.00
2019-04-12T20:27:42.605Z,100742.00
2019-04-12T20:30:15.952Z,100738.00
2019-04-12T20:33:03.423Z,100740.00
2019-04-12T20:35:26.989Z,100751.00
2019-04-12T20:38:01.093Z,100742.00
2019-04-12T20:40:35.392Z,100742.00
2019-04-12T20:43:08.494Z,100742.00
2019-04-12T20:45:41.655Z,100741.00
2019-04-12T20:48:14.615Z,100739.00
2019-04-12T20:50:49.578Z,100735.00
2019-04-12T20:53:22.600Z,100733.00
2019-04-12T20:56:00.893Z,100730.00
2019-04-12T20:58:33.865Z,100731.00
2019-04-12T21:01:07.043Z,100748.00
2019-04-12T21:03:40.082Z,100744.00
2019-04-12T21:06:13.053Z,100744.00
2019-04-12T21:08:46.129Z,100747.00
2019-04-12T21:11:19.217Z,100741.00
2019-04-12T21:13:52.311Z,100740.00
2019-04-12T21:16:25.299Z,100738.00
2019-04-12T21:18:58.324Z,100730.00
2019-04-12T21:21:31.529Z,100741.00
2019-04-12T21:24:04.490Z,100728.00
2019-04-12T21:26:39.771Z,100716.00
2019-04-12T21:29:12.945Z,100732.00
2019-04-12T21:31:45.927Z,100725.00
2019-04-12T21:34:18.980Z,100729.00
2019-04-12T21:36:51.908Z,100727.00
2019-04-12T21:39:26.673Z,100742.00
2019-04-12T21:41:59.577Z,100736.00
2019-04-12T21:44:32.624Z,100739.00
2019-04-12T21:47:05.590Z,100754.00
2019-04-12T21:49:40.447Z,100737.00
2019-04-12T21:52:13.508Z,100740.00
2019-04-12T21:54:46.488Z,100749.00
2019-04-12T21:57:19.457Z,100737.00
2019-04-12T21:59:52.362Z,100740.00
2019-04-12T22:02:26.430Z,100744.00
2019-04-12T22:04:59.384Z,100736.00
2019-04-12T22:07:32.416Z,100748.00
2019-04-12T22:10:05.973Z,100750.00
2019-04-12T22:12:39.004Z,100745.00
2019-04-12T22:15:12.114Z,100753.00
2019-04-12T22:17:45.189Z,100742.00
2019-04-12T22:20:18.290Z,100739.00
2019-04-12T22:22:51.511Z,100740.00
2019-04-12T22:25:24.601Z,100737.00
2019-04-12T22:27:57.732Z,100734.00
2019-04-12T22:30:30.701Z,100732.00
2019-04-12T22:33:03.993Z,100738.00
2019-04-12T22:35:37.053Z,100732.00
2019-04-12T22:38:10.016Z,100733.00
2019-04-12T22:40:45.538Z,100734.00
2019-04-12T22:43:18.607Z,100735.00
2019-04-12T22:45:51.512Z,100740.00
2019-04-12T22:48:24.598Z,100731.00
2019-04-12T22:50:57.557Z,100731.00
2019-04-12T22:53:30.467Z,100735.00
2019-04-12T22:56:03.596Z,100729.00
2019-04-12T22:58:36.630Z,100740.00
2019-04-12T23:01:11.237Z,100740.00
2019-04-12T23:03:44.188Z,100728.00
2019-04-12T23:06:17.197Z,100739.00
2019-04-12T23:08:50.253Z,100732.00
2019-04-12T23:11:23.235Z,100723.00
2019-04-12T23:13:57.377Z,100731.00
2019-04-12T23:16:30.354Z,100733.00
2019-04-12T23:19:03.404Z,100744.00
2019-04-12T23:21:36.417Z,100744.00
2019-04-12T23:24:11.558Z,100741.00
2019-04-12T23:26:44.478Z,100735.00
2019-04-12T23:29:17.399Z,100741.00
2019-04-12T23:31:53.782Z,100734.00
2019-04-12T23:34:52.441Z,100734.00
2019-04-12T23:37:43.834Z,100735.00
2019-04-12T23:40:16.798Z,100734.00
2019-04-12T23:42:49.751Z,100732.00
2019-04-12T23:45:24.046Z,100732.00
2019-04-12T23:47:57.113Z,100732.00
2019-04-12T23:50:30.046Z,100726.00
2019-04-12T23:53:02.922Z,100724.00
2019-04-12T23:55:35.863Z,100726.00
2019-04-12T23:58:08.819Z,100716.00
